sensor_id;sensor_type;location;lat;lon;timestamp;temperature;humidity
39931;DHT22;26635;-35.248;149.138;2022-08-21T00:01:18;10.20;84.50
39931;DHT22;26635;-35.248;149.138;2022-08-21T00:03:52;10.10;84.40
39931;DHT22;26635;-35.248;149.138;2022-08-21T00:06:28;10.10;86.40
39931;DHT22;26635;-35.248;149.138;2022-08-21T00:08:59;10.20;85.40
39931;DHT22;26635;-35.248;149.138;2022-08-21T00:11:49;10.40;84.70
39931;DHT22;26635;-35.248;149.138;2022-08-21T00:14:28;10.50;83.30
39931;DHT22;26635;-35.248;149.138;2022-08-21T00:17:00;10.60;82.70
39931;DHT22;26635;-35.248;149.138;2022-08-21T00:19:30;10.60;82.40
39931;DHT22;26635;-35.248;149.138;2022-08-21T00:22:01;10.80;83.50
39931;DHT22;26635;-35.248;149.138;2022-08-21T00:24:31;10.90;83.10
39931;DHT22;26635;-35.248;149.138;2022-08-21T00:27:02;11.10;82.50
39931;DHT22;26635;-35.248;149.138;2022-08-21T00:29:32;11.30;81.40
39931;DHT22;26635;-35.248;149.138;2022-08-21T00:32:03;11.40;79.80
39931;DHT22;26635;-35.248;149.138;2022-08-21T00:34:33;11.50;80.00
39931;DHT22;26635;-35.248;149.138;2022-08-21T00:37:04;11.70;79.90
39931;DHT22;26635;-35.248;149.138;2022-08-21T00:39:34;11.70;79.30
39931;DHT22;26635;-35.248;149.138;2022-08-21T00:42:05;11.80;80.10
39931;DHT22;26635;-35.248;149.138;2022-08-21T00:44:36;11.90;79.20
39931;DHT22;26635;-35.248;149.138;2022-08-21T00:47:06;12.00;79.00
39931;DHT22;26635;-35.248;149.138;2022-08-21T00:49:38;12.00;79.70
39931;DHT22;26635;-35.248;149.138;2022-08-21T00:52:15;12.10;79.40
39931;DHT22;26635;-35.248;149.138;2022-08-21T00:54:49;12.20;79.50
39931;DHT22;26635;-35.248;149.138;2022-08-21T00:57:40;12.20;78.70
39931;DHT22;26635;-35.248;149.138;2022-08-21T01:00:22;12.30;78.90
39931;DHT22;26635;-35.248;149.138;2022-08-21T01:02:58;12.30;78.80
39931;DHT22;26635;-35.248;149.138;2022-08-21T01:05:35;12.40;78.30
39931;DHT22;26635;-35.248;149.138;2022-08-21T01:08:07;12.40;76.20
39931;DHT22;26635;-35.248;149.138;2022-08-21T01:10:38;12.30;77.50
39931;DHT22;26635;-35.248;149.138;2022-08-21T01:13:13;12.20;76.80
39931;DHT22;26635;-35.248;149.138;2022-08-21T01:15:47;12.20;79.30
39931;DHT22;26635;-35.248;149.138;2022-08-21T01:18:19;12.20;77.70
39931;DHT22;26635;-35.248;149.138;2022-08-21T01:21:08;12.30;78.20
39931;DHT22;26635;-35.248;149.138;2022-08-21T01:23:44;12.40;77.20
39931;DHT22;26635;-35.248;149.138;2022-08-21T01:26:17;12.40;77.50
39931;DHT22;26635;-35.248;149.138;2022-08-21T01:31:43;12.30;77.50
39931;DHT22;26635;-35.248;149.138;2022-08-21T01:34:14;12.30;79.10
39931;DHT22;26635;-35.248;149.138;2022-08-21T01:36:46;12.30;77.50
39931;DHT22;26635;-35.248;149.138;2022-08-21T01:39:17;12.30;77.10
39931;DHT22;26635;-35.248;149.138;2022-08-21T01:41:48;12.40;78.30
39931;DHT22;26635;-35.248;149.138;2022-08-21T01:44:22;12.50;77.60
39931;DHT22;26635;-35.248;149.138;2022-08-21T01:46:54;12.50;78.10
39931;DHT22;26635;-35.248;149.138;2022-08-21T01:49:24;12.50;77.40
39931;DHT22;26635;-35.248;149.138;2022-08-21T01:51:56;12.60;78.00
39931;DHT22;26635;-35.248;149.138;2022-08-21T01:54:27;12.60;77.60
39931;DHT22;26635;-35.248;149.138;2022-08-21T01:56:58;12.70;76.70
39931;DHT22;26635;-35.248;149.138;2022-08-21T01:59:30;12.80;77.80
39931;DHT22;26635;-35.248;149.138;2022-08-21T02:02:03;12.90;78.50
39931;DHT22;26635;-35.248;149.138;2022-08-21T02:04:34;12.90;77.50
39931;DHT22;26635;-35.248;149.138;2022-08-21T02:07:06;13.00;76.90
39931;DHT22;26635;-35.248;149.138;2022-08-21T02:09:55;13.10;76.80
39931;DHT22;26635;-35.248;149.138;2022-08-21T02:12:25;13.20;78.40
39931;DHT22;26635;-35.248;149.138;2022-08-21T02:14:56;13.20;76.30
39931;DHT22;26635;-35.248;149.138;2022-08-21T02:17:36;13.30;76.80
39931;DHT22;26635;-35.248;149.138;2022-08-21T02:20:10;13.40;78.10
39931;DHT22;26635;-35.248;149.138;2022-08-21T02:22:42;13.50;77.00
39931;DHT22;26635;-35.248;149.138;2022-08-21T02:25:14;13.60;77.30
39931;DHT22;26635;-35.248;149.138;2022-08-21T02:27:46;13.80;76.40
39931;DHT22;26635;-35.248;149.138;2022-08-21T02:30:26;13.80;75.60
39931;DHT22;26635;-35.248;149.138;2022-08-21T02:33:03;13.80;75.40
39931;DHT22;26635;-35.248;149.138;2022-08-21T02:35:34;13.90;75.10
39931;DHT22;26635;-35.248;149.138;2022-08-21T02:38:11;13.90;75.70
39931;DHT22;26635;-35.248;149.138;2022-08-21T02:40:43;13.90;76.10
39931;DHT22;26635;-35.248;149.138;2022-08-21T02:43:21;13.90;75.10
39931;DHT22;26635;-35.248;149.138;2022-08-21T02:45:57;14.00;76.50
39931;DHT22;26635;-35.248;149.138;2022-08-21T02:48:34;14.00;75.40
39931;DHT22;26635;-35.248;149.138;2022-08-21T02:51:14;14.10;74.20
39931;DHT22;26635;-35.248;149.138;2022-08-21T02:53:52;14.10;74.80
39931;DHT22;26635;-35.248;149.138;2022-08-21T02:56:25;14.10;76.00
39931;DHT22;26635;-35.248;149.138;2022-08-21T02:58:58;14.20;75.20
39931;DHT22;26635;-35.248;149.138;2022-08-21T03:01:29;14.20;73.90
39931;DHT22;26635;-35.248;149.138;2022-08-21T03:03:59;14.20;73.60
39931;DHT22;26635;-35.248;149.138;2022-08-21T03:06:30;14.20;74.80
39931;DHT22;26635;-35.248;149.138;2022-08-21T03:09:00;14.30;74.90
39931;DHT22;26635;-35.248;149.138;2022-08-21T03:11:35;14.40;74.70
39931;DHT22;26635;-35.248;149.138;2022-08-21T03:14:06;14.50;74.40
39931;DHT22;26635;-35.248;149.138;2022-08-21T03:16:36;14.50;74.20
39931;DHT22;26635;-35.248;149.138;2022-08-21T03:19:10;14.50;73.70
39931;DHT22;26635;-35.248;149.138;2022-08-21T03:21:40;14.60;73.10
39931;DHT22;26635;-35.248;149.138;2022-08-21T03:24:11;14.60;71.40
39931;DHT22;26635;-35.248;149.138;2022-08-21T03:26:44;14.60;70.70
39931;DHT22;26635;-35.248;149.138;2022-08-21T03:29:15;14.50;70.80
39931;DHT22;26635;-35.248;149.138;2022-08-21T03:31:46;14.50;71.60
39931;DHT22;26635;-35.248;149.138;2022-08-21T03:34:16;14.60;71.50
39931;DHT22;26635;-35.248;149.138;2022-08-21T03:36:48;14.60;71.50
39931;DHT22;26635;-35.248;149.138;2022-08-21T03:39:18;14.60;70.30
39931;DHT22;26635;-35.248;149.138;2022-08-21T03:41:49;14.60;72.10
39931;DHT22;26635;-35.248;149.138;2022-08-21T03:44:20;14.60;70.10
39931;DHT22;26635;-35.248;149.138;2022-08-21T03:46:50;14.60;70.60
39931;DHT22;26635;-35.248;149.138;2022-08-21T03:49:21;14.60;69.30
39931;DHT22;26635;-35.248;149.138;2022-08-21T03:51:52;14.70;70.00
39931;DHT22;26635;-35.248;149.138;2022-08-21T03:54:26;14.70;69.60
39931;DHT22;26635;-35.248;149.138;2022-08-21T03:56:57;14.70;70.60
39931;DHT22;26635;-35.248;149.138;2022-08-21T03:59:27;14.70;69.60
39931;DHT22;26635;-35.248;149.138;2022-08-21T04:02:00;14.70;69.60
39931;DHT22;26635;-35.248;149.138;2022-08-21T04:04:32;14.60;70.10
39931;DHT22;26635;-35.248;149.138;2022-08-21T04:07:03;14.60;70.50
39931;DHT22;26635;-35.248;149.138;2022-08-21T04:09:34;14.60;68.30
39931;DHT22;26635;-35.248;149.138;2022-08-21T04:12:05;14.50;68.80
39931;DHT22;26635;-35.248;149.138;2022-08-21T04:14:37;14.50;68.90
39931;DHT22;26635;-35.248;149.138;2022-08-21T04:17:07;14.50;68.40
39931;DHT22;26635;-35.248;149.138;2022-08-21T04:19:38;14.50;69.30
39931;DHT22;26635;-35.248;149.138;2022-08-21T04:22:08;14.60;68.30
39931;DHT22;26635;-35.248;149.138;2022-08-21T04:24:39;14.50;68.80
39931;DHT22;26635;-35.248;149.138;2022-08-21T04:27:09;14.60;67.70
39931;DHT22;26635;-35.248;149.138;2022-08-21T04:29:39;14.60;68.20
39931;DHT22;26635;-35.248;149.138;2022-08-21T04:32:10;14.50;67.50
39931;DHT22;26635;-35.248;149.138;2022-08-21T04:34:40;14.50;68.20
39931;DHT22;26635;-35.248;149.138;2022-08-21T04:37:11;14.50;66.70
39931;DHT22;26635;-35.248;149.138;2022-08-21T04:39:44;14.50;66.50
39931;DHT22;26635;-35.248;149.138;2022-08-21T04:42:20;14.50;66.90
39931;DHT22;26635;-35.248;149.138;2022-08-21T04:44:50;14.50;67.40
39931;DHT22;26635;-35.248;149.138;2022-08-21T04:47:21;14.50;67.20
39931;DHT22;26635;-35.248;149.138;2022-08-21T04:50:13;14.50;66.70
39931;DHT22;26635;-35.248;149.138;2022-08-21T04:52:46;14.50;66.70
39931;DHT22;26635;-35.248;149.138;2022-08-21T04:55:17;14.40;67.50
39931;DHT22;26635;-35.248;149.138;2022-08-21T04:57:48;14.40;68.00
39931;DHT22;26635;-35.248;149.138;2022-08-21T05:00:22;14.40;67.60
39931;DHT22;26635;-35.248;149.138;2022-08-21T05:02:54;14.40;67.00
39931;DHT22;26635;-35.248;149.138;2022-08-21T05:05:29;14.30;67.50
39931;DHT22;26635;-35.248;149.138;2022-08-21T05:08:01;14.30;67.80
39931;DHT22;26635;-35.248;149.138;2022-08-21T05:10:33;14.30;68.90
39931;DHT22;26635;-35.248;149.138;2022-08-21T05:13:06;14.20;67.70
39931;DHT22;26635;-35.248;149.138;2022-08-21T05:15:38;14.20;67.60
39931;DHT22;26635;-35.248;149.138;2022-08-21T05:18:09;14.10;67.70
39931;DHT22;26635;-35.248;149.138;2022-08-21T05:20:41;14.00;67.60
39931;DHT22;26635;-35.248;149.138;2022-08-21T05:23:14;14.00;66.40
39931;DHT22;26635;-35.248;149.138;2022-08-21T05:25:46;13.90;67.00
39931;DHT22;26635;-35.248;149.138;2022-08-21T05:28:17;13.90;66.10
39931;DHT22;26635;-35.248;149.138;2022-08-21T05:30:48;13.90;67.40
39931;DHT22;26635;-35.248;149.138;2022-08-21T05:33:19;13.80;67.40
39931;DHT22;26635;-35.248;149.138;2022-08-21T05:35:53;13.80;66.40
39931;DHT22;26635;-35.248;149.138;2022-08-21T05:38:27;13.80;67.40
39931;DHT22;26635;-35.248;149.138;2022-08-21T05:40:58;13.70;67.50
39931;DHT22;26635;-35.248;149.138;2022-08-21T05:43:29;13.70;67.00
39931;DHT22;26635;-35.248;149.138;2022-08-21T05:45:59;13.70;67.30
39931;DHT22;26635;-35.248;149.138;2022-08-21T05:48:29;13.60;68.10
39931;DHT22;26635;-35.248;149.138;2022-08-21T05:51:06;13.70;68.30
39931;DHT22;26635;-35.248;149.138;2022-08-21T05:53:36;13.60;67.50
39931;DHT22;26635;-35.248;149.138;2022-08-21T05:56:07;13.60;67.70
39931;DHT22;26635;-35.248;149.138;2022-08-21T05:58:38;13.60;67.60
39931;DHT22;26635;-35.248;149.138;2022-08-21T06:01:09;13.50;67.70
39931;DHT22;26635;-35.248;149.138;2022-08-21T06:03:41;13.50;68.20
39931;DHT22;26635;-35.248;149.138;2022-08-21T06:06:13;13.50;68.30
39931;DHT22;26635;-35.248;149.138;2022-08-21T06:08:43;13.50;68.00
39931;DHT22;26635;-35.248;149.138;2022-08-21T06:11:14;13.40;67.90
39931;DHT22;26635;-35.248;149.138;2022-08-21T06:13:47;13.30;67.50
39931;DHT22;26635;-35.248;149.138;2022-08-21T06:16:18;13.20;68.40
39931;DHT22;26635;-35.248;149.138;2022-08-21T06:18:48;13.20;68.70
39931;DHT22;26635;-35.248;149.138;2022-08-21T06:21:19;13.10;68.50
39931;DHT22;26635;-35.248;149.138;2022-08-21T06:23:49;13.00;69.00
39931;DHT22;26635;-35.248;149.138;2022-08-21T06:26:20;12.90;69.80
39931;DHT22;26635;-35.248;149.138;2022-08-21T06:28:51;12.90;69.80
39931;DHT22;26635;-35.248;149.138;2022-08-21T06:31:25;12.80;69.80
39931;DHT22;26635;-35.248;149.138;2022-08-21T06:33:56;12.70;69.30
39931;DHT22;26635;-35.248;149.138;2022-08-21T06:36:27;12.60;69.10
39931;DHT22;26635;-35.248;149.138;2022-08-21T06:38:57;12.50;69.30
39931;DHT22;26635;-35.248;149.138;2022-08-21T06:41:28;12.40;69.60
39931;DHT22;26635;-35.248;149.138;2022-08-21T06:44:05;12.30;69.80
39931;DHT22;26635;-35.248;149.138;2022-08-21T06:46:37;12.30;70.90
39931;DHT22;26635;-35.248;149.138;2022-08-21T06:49:08;12.30;70.30
39931;DHT22;26635;-35.248;149.138;2022-08-21T06:51:48;12.20;70.50
39931;DHT22;26635;-35.248;149.138;2022-08-21T06:54:18;12.20;70.50
39931;DHT22;26635;-35.248;149.138;2022-08-21T06:56:49;12.10;71.20
39931;DHT22;26635;-35.248;149.138;2022-08-21T06:59:19;12.10;71.60
39931;DHT22;26635;-35.248;149.138;2022-08-21T07:01:49;12.00;71.70
39931;DHT22;26635;-35.248;149.138;2022-08-21T07:04:20;11.90;71.20
39931;DHT22;26635;-35.248;149.138;2022-08-21T07:06:50;11.90;72.60
39931;DHT22;26635;-35.248;149.138;2022-08-21T07:09:21;11.80;72.80
39931;DHT22;26635;-35.248;149.138;2022-08-21T07:11:54;11.80;73.50
39931;DHT22;26635;-35.248;149.138;2022-08-21T07:14:25;11.70;73.50
39931;DHT22;26635;-35.248;149.138;2022-08-21T07:16:56;11.70;73.80
39931;DHT22;26635;-35.248;149.138;2022-08-21T07:19:28;11.60;74.20
39931;DHT22;26635;-35.248;149.138;2022-08-21T07:22:02;11.50;74.00
39931;DHT22;26635;-35.248;149.138;2022-08-21T07:24:32;11.40;74.30
39931;DHT22;26635;-35.248;149.138;2022-08-21T07:27:02;11.40;75.20
39931;DHT22;26635;-35.248;149.138;2022-08-21T07:29:37;11.30;75.10
39931;DHT22;26635;-35.248;149.138;2022-08-21T07:32:08;11.20;75.00
39931;DHT22;26635;-35.248;149.138;2022-08-21T07:34:38;11.20;74.90
39931;DHT22;26635;-35.248;149.138;2022-08-21T07:37:08;11.10;75.20
39931;DHT22;26635;-35.248;149.138;2022-08-21T07:39:39;11.00;74.90
39931;DHT22;26635;-35.248;149.138;2022-08-21T07:42:11;11.00;75.20
39931;DHT22;26635;-35.248;149.138;2022-08-21T07:44:46;10.90;74.70
39931;DHT22;26635;-35.248;149.138;2022-08-21T07:47:19;10.80;76.20
39931;DHT22;26635;-35.248;149.138;2022-08-21T07:50:11;10.80;76.00
39931;DHT22;26635;-35.248;149.138;2022-08-21T07:52:53;10.70;76.90
39931;DHT22;26635;-35.248;149.138;2022-08-21T07:55:43;10.70;76.40
39931;DHT22;26635;-35.248;149.138;2022-08-21T07:58:13;10.60;76.60
39931;DHT22;26635;-35.248;149.138;2022-08-21T08:00:44;10.60;77.50
39931;DHT22;26635;-35.248;149.138;2022-08-21T08:03:15;10.50;77.50
39931;DHT22;26635;-35.248;149.138;2022-08-21T08:05:56;10.50;77.00
39931;DHT22;26635;-35.248;149.138;2022-08-21T08:08:28;10.40;76.90
39931;DHT22;26635;-35.248;149.138;2022-08-21T08:11:01;10.40;76.80
39931;DHT22;26635;-35.248;149.138;2022-08-21T08:13:48;10.40;76.90
39931;DHT22;26635;-35.248;149.138;2022-08-21T08:16:21;10.30;76.50
39931;DHT22;26635;-35.248;149.138;2022-08-21T08:18:52;10.30;76.50
39931;DHT22;26635;-35.248;149.138;2022-08-21T08:21:27;10.20;76.60
39931;DHT22;26635;-35.248;149.138;2022-08-21T08:24:02;10.20;76.70
39931;DHT22;26635;-35.248;149.138;2022-08-21T08:26:46;10.20;76.50
39931;DHT22;26635;-35.248;149.138;2022-08-21T08:29:22;10.10;76.50
39931;DHT22;26635;-35.248;149.138;2022-08-21T08:32:00;10.10;77.40
39931;DHT22;26635;-35.248;149.138;2022-08-21T08:34:31;10.00;77.90
39931;DHT22;26635;-35.248;149.138;2022-08-21T08:37:02;10.00;77.60
39931;DHT22;26635;-35.248;149.138;2022-08-21T08:39:35;9.90;78.40
39931;DHT22;26635;-35.248;149.138;2022-08-21T08:42:11;9.90;78.10
39931;DHT22;26635;-35.248;149.138;2022-08-21T08:45:11;9.90;78.20
39931;DHT22;26635;-35.248;149.138;2022-08-21T08:47:50;9.80;78.20
39931;DHT22;26635;-35.248;149.138;2022-08-21T08:53:07;9.70;78.80
39931;DHT22;26635;-35.248;149.138;2022-08-21T08:55:42;9.70;78.90
39931;DHT22;26635;-35.248;149.138;2022-08-21T08:58:42;9.70;79.00
39931;DHT22;26635;-35.248;149.138;2022-08-21T09:01:19;9.60;79.10
39931;DHT22;26635;-35.248;149.138;2022-08-21T09:03:52;9.60;80.10
39931;DHT22;26635;-35.248;149.138;2022-08-21T09:07:35;9.50;79.50
39931;DHT22;26635;-35.248;149.138;2022-08-21T09:15:36;9.40;80.20
39931;DHT22;26635;-35.248;149.138;2022-08-21T09:18:36;9.30;79.40
39931;DHT22;26635;-35.248;149.138;2022-08-21T09:21:26;9.30;80.40
39931;DHT22;26635;-35.248;149.138;2022-08-21T09:24:17;9.30;79.40
39931;DHT22;26635;-35.248;149.138;2022-08-21T09:29:39;9.20;80.30
39931;DHT22;26635;-35.248;149.138;2022-08-21T09:32:32;9.10;79.70
39931;DHT22;26635;-35.248;149.138;2022-08-21T09:38:06;9.00;80.40
39931;DHT22;26635;-35.248;149.138;2022-08-21T09:40:47;8.90;79.20
39931;DHT22;26635;-35.248;149.138;2022-08-21T09:43:27;8.90;80.50
39931;DHT22;26635;-35.248;149.138;2022-08-21T09:46:20;8.80;80.20
39931;DHT22;26635;-35.248;149.138;2022-08-21T09:48:58;8.80;81.10
39931;DHT22;26635;-35.248;149.138;2022-08-21T09:51:36;8.70;80.60
39931;DHT22;26635;-35.248;149.138;2022-08-21T09:57:10;8.60;79.90
39931;DHT22;26635;-35.248;149.138;2022-08-21T09:59:48;8.60;80.70
39931;DHT22;26635;-35.248;149.138;2022-08-21T10:05:00;8.60;81.10
39931;DHT22;26635;-35.248;149.138;2022-08-21T10:07:37;8.60;81.00
39931;DHT22;26635;-35.248;149.138;2022-08-21T10:13:12;8.50;82.00
39931;DHT22;26635;-35.248;149.138;2022-08-21T10:18:56;8.40;82.80
39931;DHT22;26635;-35.248;149.138;2022-08-21T10:25:09;8.30;82.60
39931;DHT22;26635;-35.248;149.138;2022-08-21T10:28:18;8.30;83.10
39931;DHT22;26635;-35.248;149.138;2022-08-21T10:31:00;8.20;82.90
39931;DHT22;26635;-35.248;149.138;2022-08-21T10:33:53;8.10;83.60
39931;DHT22;26635;-35.248;149.138;2022-08-21T10:37:07;8.00;83.70
39931;DHT22;26635;-35.248;149.138;2022-08-21T10:42:57;7.70;85.10
39931;DHT22;26635;-35.248;149.138;2022-08-21T10:48:34;7.50;86.00
39931;DHT22;26635;-35.248;149.138;2022-08-21T10:51:20;7.40;85.90
39931;DHT22;26635;-35.248;149.138;2022-08-21T10:56:37;7.30;85.30
39931;DHT22;26635;-35.248;149.138;2022-08-21T10:59:33;7.20;86.30
39931;DHT22;26635;-35.248;149.138;2022-08-21T11:02:20;7.10;85.30
39931;DHT22;26635;-35.248;149.138;2022-08-21T11:05:07;7.10;86.20
39931;DHT22;26635;-35.248;149.138;2022-08-21T11:08:01;7.00;86.20
39931;DHT22;26635;-35.248;149.138;2022-08-21T11:10:49;7.00;87.40
39931;DHT22;26635;-35.248;149.138;2022-08-21T11:19:02;6.80;87.30
39931;DHT22;26635;-35.248;149.138;2022-08-21T11:24:46;6.70;88.50
39931;DHT22;26635;-35.248;149.138;2022-08-21T11:27:26;6.70;88.40
39931;DHT22;26635;-35.248;149.138;2022-08-21T11:30:00;6.70;88.10
39931;DHT22;26635;-35.248;149.138;2022-08-21T11:38:01;6.60;87.40
39931;DHT22;26635;-35.248;149.138;2022-08-21T11:49:06;6.70;88.20
39931;DHT22;26635;-35.248;149.138;2022-08-21T11:52:08;6.70;88.60
39931;DHT22;26635;-35.248;149.138;2022-08-21T11:54:55;6.60;89.20
39931;DHT22;26635;-35.248;149.138;2022-08-21T11:57:43;6.60;88.10
39931;DHT22;26635;-35.248;149.138;2022-08-21T12:00:43;6.60;89.20
39931;DHT22;26635;-35.248;149.138;2022-08-21T12:03:37;6.70;90.00
39931;DHT22;26635;-35.248;149.138;2022-08-21T12:06:14;6.60;87.70
39931;DHT22;26635;-35.248;149.138;2022-08-21T12:09:09;6.70;89.80
39931;DHT22;26635;-35.248;149.138;2022-08-21T12:11:49;6.70;89.20
39931;DHT22;26635;-35.248;149.138;2022-08-21T12:14:20;6.70;90.00
39931;DHT22;26635;-35.248;149.138;2022-08-21T12:16:50;6.70;88.10
39931;DHT22;26635;-35.248;149.138;2022-08-21T12:19:28;6.70;87.90
39931;DHT22;26635;-35.248;149.138;2022-08-21T12:24:50;6.70;87.80
39931;DHT22;26635;-35.248;149.138;2022-08-21T12:28:07;6.60;88.40
39931;DHT22;26635;-35.248;149.138;2022-08-21T12:30:37;6.60;88.00
39931;DHT22;26635;-35.248;149.138;2022-08-21T12:33:35;6.50;88.00
39931;DHT22;26635;-35.248;149.138;2022-08-21T12:36:12;6.50;88.40
39931;DHT22;26635;-35.248;149.138;2022-08-21T12:39:03;6.40;88.10
39931;DHT22;26635;-35.248;149.138;2022-08-21T12:41:48;6.50;88.60
39931;DHT22;26635;-35.248;149.138;2022-08-21T12:44:33;6.50;89.90
39931;DHT22;26635;-35.248;149.138;2022-08-21T12:47:14;6.60;88.80
39931;DHT22;26635;-35.248;149.138;2022-08-21T12:50:13;6.70;87.70
39931;DHT22;26635;-35.248;149.138;2022-08-21T12:53:06;6.80;88.30
39931;DHT22;26635;-35.248;149.138;2022-08-21T12:55:48;6.90;87.20
39931;DHT22;26635;-35.248;149.138;2022-08-21T12:58:25;7.00;87.00
39931;DHT22;26635;-35.248;149.138;2022-08-21T13:01:05;7.00;86.90
39931;DHT22;26635;-35.248;149.138;2022-08-21T13:03:37;7.00;87.10
39931;DHT22;26635;-35.248;149.138;2022-08-21T13:06:15;7.10;86.20
39931;DHT22;26635;-35.248;149.138;2022-08-21T13:08:49;7.10;87.10
39931;DHT22;26635;-35.248;149.138;2022-08-21T13:11:22;7.20;86.60
39931;DHT22;26635;-35.248;149.138;2022-08-21T13:14:02;7.20;87.00
39931;DHT22;26635;-35.248;149.138;2022-08-21T13:16:34;7.20;87.20
39931;DHT22;26635;-35.248;149.138;2022-08-21T13:19:10;7.30;86.10
39931;DHT22;26635;-35.248;149.138;2022-08-21T13:21:43;7.20;86.90
39931;DHT22;26635;-35.248;149.138;2022-08-21T13:24:34;7.20;86.10
39931;DHT22;26635;-35.248;149.138;2022-08-21T13:27:20;7.20;85.40
39931;DHT22;26635;-35.248;149.138;2022-08-21T13:30:11;7.20;85.50
39931;DHT22;26635;-35.248;149.138;2022-08-21T13:32:48;7.20;86.00
39931;DHT22;26635;-35.248;149.138;2022-08-21T13:35:27;7.20;86.40
39931;DHT22;26635;-35.248;149.138;2022-08-21T13:38:00;7.10;88.40
39931;DHT22;26635;-35.248;149.138;2022-08-21T13:40:54;7.00;86.70
39931;DHT22;26635;-35.248;149.138;2022-08-21T13:43:31;7.00;87.90
39931;DHT22;26635;-35.248;149.138;2022-08-21T13:46:07;6.90;87.70
39931;DHT22;26635;-35.248;149.138;2022-08-21T13:48:38;6.80;87.90
39931;DHT22;26635;-35.248;149.138;2022-08-21T13:51:10;6.80;87.80
39931;DHT22;26635;-35.248;149.138;2022-08-21T13:53:45;6.70;88.00
39931;DHT22;26635;-35.248;149.138;2022-08-21T13:56:30;6.70;88.20
39931;DHT22;26635;-35.248;149.138;2022-08-21T13:59:03;6.70;89.20
39931;DHT22;26635;-35.248;149.138;2022-08-21T14:01:37;6.70;88.70
39931;DHT22;26635;-35.248;149.138;2022-08-21T14:04:23;6.70;88.50
39931;DHT22;26635;-35.248;149.138;2022-08-21T14:06:56;6.80;88.70
39931;DHT22;26635;-35.248;149.138;2022-08-21T14:09:31;6.80;88.20
39931;DHT22;26635;-35.248;149.138;2022-08-21T14:12:15;6.90;88.20
39931;DHT22;26635;-35.248;149.138;2022-08-21T14:14:51;7.00;88.30
39931;DHT22;26635;-35.248;149.138;2022-08-21T14:17:28;7.00;87.70
39931;DHT22;26635;-35.248;149.138;2022-08-21T14:20:02;7.00;87.70
39931;DHT22;26635;-35.248;149.138;2022-08-21T14:22:44;7.10;87.60
39931;DHT22;26635;-35.248;149.138;2022-08-21T14:30:41;7.00;87.00
39931;DHT22;26635;-35.248;149.138;2022-08-21T14:33:18;7.10;86.70
39931;DHT22;26635;-35.248;149.138;2022-08-21T14:35:51;7.10;88.60
39931;DHT22;26635;-35.248;149.138;2022-08-21T14:38:28;7.00;87.60
39931;DHT22;26635;-35.248;149.138;2022-08-21T14:41:12;7.00;86.60
39931;DHT22;26635;-35.248;149.138;2022-08-21T14:43:55;7.00;86.50
39931;DHT22;26635;-35.248;149.138;2022-08-21T14:46:37;6.90;86.60
39931;DHT22;26635;-35.248;149.138;2022-08-21T14:49:25;6.80;88.40
39931;DHT22;26635;-35.248;149.138;2022-08-21T14:51:58;6.80;87.80
39931;DHT22;26635;-35.248;149.138;2022-08-21T14:54:33;6.70;88.10
39931;DHT22;26635;-35.248;149.138;2022-08-21T14:57:10;6.60;88.40
39931;DHT22;26635;-35.248;149.138;2022-08-21T14:59:43;6.50;88.00
39931;DHT22;26635;-35.248;149.138;2022-08-21T15:02:14;6.50;88.30
39931;DHT22;26635;-35.248;149.138;2022-08-21T15:04:46;6.50;88.40
39931;DHT22;26635;-35.248;149.138;2022-08-21T15:07:18;6.40;88.90
39931;DHT22;26635;-35.248;149.138;2022-08-21T15:09:50;6.40;88.60
39931;DHT22;26635;-35.248;149.138;2022-08-21T15:12:30;6.30;88.60
39931;DHT22;26635;-35.248;149.138;2022-08-21T15:15:08;6.30;88.80
39931;DHT22;26635;-35.248;149.138;2022-08-21T15:17:44;6.30;88.70
39931;DHT22;26635;-35.248;149.138;2022-08-21T15:20:15;6.30;89.90
39931;DHT22;26635;-35.248;149.138;2022-08-21T15:22:47;6.20;89.60
39931;DHT22;26635;-35.248;149.138;2022-08-21T15:25:18;6.30;89.60
39931;DHT22;26635;-35.248;149.138;2022-08-21T15:27:49;6.30;89.30
39931;DHT22;26635;-35.248;149.138;2022-08-21T15:30:21;6.30;89.60
39931;DHT22;26635;-35.248;149.138;2022-08-21T15:32:53;6.30;89.70
39931;DHT22;26635;-35.248;149.138;2022-08-21T15:35:25;6.30;89.80
39931;DHT22;26635;-35.248;149.138;2022-08-21T15:37:56;6.30;89.90
39931;DHT22;26635;-35.248;149.138;2022-08-21T15:40:27;6.30;89.90
39931;DHT22;26635;-35.248;149.138;2022-08-21T15:43:03;6.30;90.20
39931;DHT22;26635;-35.248;149.138;2022-08-21T15:45:34;6.30;90.10
39931;DHT22;26635;-35.248;149.138;2022-08-21T15:48:05;6.30;90.10
39931;DHT22;26635;-35.248;149.138;2022-08-21T15:50:38;6.30;90.10
39931;DHT22;26635;-35.248;149.138;2022-08-21T15:53:14;6.30;90.00
39931;DHT22;26635;-35.248;149.138;2022-08-21T15:55:44;6.20;90.00
39931;DHT22;26635;-35.248;149.138;2022-08-21T15:58:18;6.20;90.20
39931;DHT22;26635;-35.248;149.138;2022-08-21T16:00:50;6.20;90.50
39931;DHT22;26635;-35.248;149.138;2022-08-21T16:03:20;6.10;90.60
39931;DHT22;26635;-35.248;149.138;2022-08-21T16:05:51;6.10;90.70
39931;DHT22;26635;-35.248;149.138;2022-08-21T16:08:25;6.10;91.00
39931;DHT22;26635;-35.248;149.138;2022-08-21T16:10:56;6.00;91.30
39931;DHT22;26635;-35.248;149.138;2022-08-21T16:13:30;6.00;91.40
39931;DHT22;26635;-35.248;149.138;2022-08-21T16:16:05;6.00;91.10
39931;DHT22;26635;-35.248;149.138;2022-08-21T16:18:35;6.00;91.20
39931;DHT22;26635;-35.248;149.138;2022-08-21T16:21:07;6.00;91.00
39931;DHT22;26635;-35.248;149.138;2022-08-21T16:23:37;6.00;91.20
39931;DHT22;26635;-35.248;149.138;2022-08-21T16:26:11;6.00;91.50
39931;DHT22;26635;-35.248;149.138;2022-08-21T16:28:45;5.90;91.40
39931;DHT22;26635;-35.248;149.138;2022-08-21T16:31:19;6.00;91.30
39931;DHT22;26635;-35.248;149.138;2022-08-21T16:33:52;6.00;91.50
39931;DHT22;26635;-35.248;149.138;2022-08-21T16:36:25;6.00;91.40
39931;DHT22;26635;-35.248;149.138;2022-08-21T16:38:58;6.10;91.50
39931;DHT22;26635;-35.248;149.138;2022-08-21T16:41:35;6.20;91.40
39931;DHT22;26635;-35.248;149.138;2022-08-21T16:44:06;6.20;91.30
39931;DHT22;26635;-35.248;149.138;2022-08-21T16:46:39;6.20;91.70
39931;DHT22;26635;-35.248;149.138;2022-08-21T16:49:11;6.20;91.70
39931;DHT22;26635;-35.248;149.138;2022-08-21T16:51:43;6.20;92.20
39931;DHT22;26635;-35.248;149.138;2022-08-21T16:54:14;6.10;92.00
39931;DHT22;26635;-35.248;149.138;2022-08-21T16:56:47;6.10;92.60
39931;DHT22;26635;-35.248;149.138;2022-08-21T16:59:21;6.10;92.00